world map with ILQ marked

ILQ - Airport

This information may not be accurate or current and is not valid for navigation or flight planning. No warranty of fitness for any purpose is made or implied.

flag of Moqueguaflag of Perú

Donate via PayPal

Additional information is available on the NEW Great Circle Mapper

Location
City:  Ilo, Moquegua, Perú
Name:Ilo Airport
ICAO / IATA:SPLO / ILQ

Details
Type:Airport (Aerodrome, Airfield)
Use:Public/Civil
Latitude:17°41'42"S (-17.695027)
Longitude:71°20'38"W (-71.343930)
Elevation:72 ft (22 m)
Runways:1
Longest:8202 × 148 ft (2500 × 45 m)

Time
Timezone:UTC+29:08 (DST+31:08)
Local Time:

Weather
METAR:SPLO  041400Z 13012KT 9999 SCT060 24/19 Q1011 RMK PP000
TAF:SPLO  041115Z 0412/0512 17008KT CAVOK TX29/0419Z TN22/0511Z

Related Locations
Nearby:
Farthest:SYX: 12373 mi / 19913 km
Sanya [Fenghuang Intl (Phoenix Intl)], 46, CN

Find:

   beyond  
but within

Other Information
Maps:
Sources:

  


 


Great Circle Mapper   Great Circle Mapper
Great Circle Mapper FAQ   Great Circle Mapper FAQ
  Karl's Home Page
KLS˛   KLS˛ Home
   GC on Facebook
Airlines of the World   Airlines of the World
Donate via PayPal


Copyright © 2004-2020, Karl L. Swartz. All rights reserved.
All trademarks mentioned herein belong to their respective owners.

Please see credits for attribution and copyright information.

Karl Swartz <karl@kls2.com>
  Powered by FreeBSD
Valid HTML 4.01!
Labeled with ICRA
hCard Microformat
Geo Microformat